createdAt,value
2019-06-26T00:00:21.480Z,46.88
2019-06-26T00:02:50.028Z,46.08
2019-06-26T00:05:18.675Z,42.10
2019-06-26T00:07:47.358Z,45.03
2019-06-26T00:10:15.847Z,45.08
2019-06-26T00:12:44.874Z,38.73
2019-06-26T00:15:13.396Z,45.65
2019-06-26T00:17:42.034Z,42.90
2019-06-26T00:20:10.516Z,49.75
2019-06-26T00:22:39.207Z,50.52
2019-06-26T00:25:07.742Z,49.13
2019-06-26T00:27:36.355Z,51.83
2019-06-26T00:30:06.327Z,47.35
2019-06-26T00:32:34.827Z,50.58
2019-06-26T00:35:03.438Z,50.17
2019-06-26T00:37:31.997Z,52.45
2019-06-26T00:40:00.583Z,47.03
2019-06-26T00:42:29.151Z,45.83
2019-06-26T00:44:57.819Z,39.83
2019-06-26T00:47:26.366Z,46.15
2019-06-26T00:49:54.851Z,42.13
2019-06-26T00:52:23.394Z,46.20
2019-06-26T00:54:52.017Z,45.43
2019-06-26T00:57:20.502Z,53.53
2019-06-26T00:59:49.061Z,50.67
2019-06-26T01:02:17.573Z,50.53
2019-06-26T01:04:53.565Z,52.50
2019-06-26T01:07:22.094Z,53.27
2019-06-26T01:09:50.696Z,51.77
2019-06-26T01:12:19.362Z,53.47
2019-06-26T01:14:47.949Z,50.00
2019-06-26T01:17:16.455Z,52.10
2019-06-26T01:19:45.048Z,50.17
2019-06-26T01:22:13.589Z,46.30
2019-06-26T01:24:42.152Z,47.27
2019-06-26T01:27:10.845Z,46.27
2019-06-26T01:29:39.334Z,46.97
2019-06-26T01:32:07.944Z,53.67
2019-06-26T01:34:36.449Z,49.90
2019-06-26T01:37:04.920Z,50.43
2019-06-26T01:39:33.551Z,54.27
2019-06-26T01:42:02.164Z,52.63
2019-06-26T01:44:30.613Z,55.43
2019-06-26T01:46:59.261Z,53.93
2019-06-26T01:49:27.826Z,55.67
2019-06-26T01:51:56.487Z,56.60
2019-06-26T01:54:25.063Z,52.60
2019-06-26T01:56:53.598Z,53.60
2019-06-26T01:59:22.185Z,47.63
2019-06-26T02:01:50.797Z,43.70
2019-06-26T02:04:19.385Z,44.53
2019-06-26T02:06:47.923Z,49.07
2019-06-26T02:09:16.616Z,57.40
2019-06-26T02:11:45.235Z,56.27
2019-06-26T02:14:29.629Z,50.73
2019-06-26T02:16:43.895Z,57.73
2019-06-26T02:19:14.016Z,55.40
2019-06-26T02:21:42.556Z,53.77
2019-06-26T02:24:11.109Z,56.20
2019-06-26T02:26:39.673Z,54.10
2019-06-26T02:29:08.207Z,51.13
2019-06-26T02:31:36.882Z,50.13
2019-06-26T02:34:05.361Z,55.03
2019-06-26T02:36:33.864Z,53.60
2019-06-26T02:39:02.483Z,52.40
2019-06-26T02:41:31.316Z,60.10
2019-06-26T02:43:59.878Z,58.83
2019-06-26T02:46:28.472Z,58.20
2019-06-26T02:48:57.058Z,62.93
2019-06-26T02:51:25.526Z,63.03
2019-06-26T02:53:54.093Z,67.60
2019-06-26T02:56:22.842Z,63.20
2019-06-26T02:58:51.322Z,61.60
2019-06-26T03:01:19.801Z,64.30
2019-06-26T03:03:48.328Z,61.23
2019-06-26T03:06:16.816Z,59.97
2019-06-26T03:08:45.306Z,58.00
2019-06-26T03:11:13.828Z,57.13
2019-06-26T03:13:42.293Z,59.00
2019-06-26T03:16:10.842Z,59.47
2019-06-26T03:18:39.362Z,62.70
2019-06-26T03:21:07.981Z,59.60
2019-06-26T03:23:36.514Z,58.17
2019-06-26T03:26:05.023Z,59.90
2019-06-26T03:28:33.640Z,56.47
2019-06-26T03:31:02.155Z,54.77
2019-06-26T03:33:30.689Z,53.47
2019-06-26T03:35:59.235Z,51.07
2019-06-26T03:38:27.718Z,59.67
2019-06-26T03:40:56.363Z,58.00
2019-06-26T03:43:24.888Z,53.30
2019-06-26T03:45:53.366Z,52.63
2019-06-26T03:48:21.896Z,61.90
2019-06-26T03:50:50.379Z,64.00
2019-06-26T03:53:18.859Z,63.17
2019-06-26T03:55:47.371Z,61.20
2019-06-26T03:58:15.927Z,61.73
2019-06-26T04:00:44.586Z,64.13
2019-06-26T04:03:13.169Z,57.97
2019-06-26T04:05:41.761Z,58.30
2019-06-26T04:08:10.245Z,57.63
2019-06-26T04:10:38.801Z,48.63
2019-06-26T04:13:07.494Z,49.43
2019-06-26T04:15:42.268Z,49.63
2019-06-26T04:18:06.293Z,52.43
2019-06-26T04:20:34.930Z,54.37
2019-06-26T04:23:03.482Z,50.67
2019-06-26T04:25:32.062Z,48.97
2019-06-26T04:28:00.593Z,51.60
2019-06-26T04:30:29.077Z,51.97
2019-06-26T04:32:57.677Z,48.00
2019-06-26T04:35:26.263Z,44.10
2019-06-26T04:37:54.794Z,42.90
2019-06-26T04:40:23.485Z,43.07
2019-06-26T04:42:52.071Z,40.67
2019-06-26T04:45:20.715Z,41.00
2019-06-26T04:47:49.266Z,43.77
2019-06-26T04:50:17.838Z,42.47
2019-06-26T04:52:46.401Z,40.57
2019-06-26T04:55:15.027Z,41.07
2019-06-26T04:57:43.687Z,36.27
2019-06-26T05:00:12.334Z,40.77
2019-06-26T05:02:40.947Z,36.30
2019-06-26T05:05:10.588Z,36.03
2019-06-26T05:07:39.062Z,42.10
2019-06-26T05:10:08.498Z,41.13
2019-06-26T05:12:37.097Z,37.30
2019-06-26T05:15:07.574Z,37.20
2019-06-26T05:17:36.196Z,39.73
2019-06-26T05:20:08.060Z,36.50
2019-06-26T05:22:36.507Z,36.30
2019-06-26T05:25:08.585Z,37.30
2019-06-26T05:27:37.186Z,38.77
2019-06-26T05:30:08.657Z,37.80
2019-06-26T05:32:37.180Z,38.03
2019-06-26T05:35:07.520Z,35.50
2019-06-26T05:37:36.049Z,35.17
2019-06-26T05:40:09.491Z,35.80
2019-06-26T05:42:38.132Z,35.87
2019-06-26T05:45:06.663Z,33.07
2019-06-26T05:47:35.255Z,36.93
2019-06-26T05:50:07.695Z,31.37
2019-06-26T05:52:36.252Z,31.57
2019-06-26T05:55:06.047Z,31.13
2019-06-26T05:57:34.654Z,31.63
2019-06-26T06:00:05.190Z,32.93
2019-06-26T06:02:33.632Z,31.83
2019-06-26T06:05:02.150Z,32.63
2019-06-26T06:07:32.056Z,34.87
2019-06-26T06:10:00.549Z,33.20
2019-06-26T06:12:29.269Z,37.00
2019-06-26T06:14:57.852Z,38.30
2019-06-26T06:17:27.526Z,38.60
2019-06-26T06:19:56.245Z,38.33
2019-06-26T06:22:27.477Z,35.57
2019-06-26T06:24:55.289Z,34.93
2019-06-26T06:27:23.836Z,36.03
2019-06-26T06:29:52.439Z,34.73
2019-06-26T06:32:21.211Z,35.77
2019-06-26T06:34:49.754Z,39.80
2019-06-26T06:37:18.486Z,40.30
2019-06-26T06:39:47.085Z,40.77
2019-06-26T06:42:15.712Z,42.77
2019-06-26T06:44:44.693Z,37.47
2019-06-26T06:47:13.427Z,43.47
2019-06-26T06:49:42.169Z,45.07
2019-06-26T06:52:10.753Z,42.70
2019-06-26T06:54:39.399Z,42.67
2019-06-26T06:57:07.993Z,42.13
2019-06-26T06:59:36.469Z,40.40
2019-06-26T07:02:05.189Z,39.30
2019-06-26T07:04:33.919Z,41.33
2019-06-26T07:07:02.393Z,44.63
2019-06-26T07:09:30.986Z,39.33
2019-06-26T07:11:59.621Z,39.87
2019-06-26T07:14:28.225Z,43.97
2019-06-26T07:16:56.922Z,40.83
2019-06-26T07:19:25.435Z,40.10
2019-06-26T07:21:54.205Z,43.17
2019-06-26T07:24:22.789Z,43.70
2019-06-26T07:26:51.441Z,40.00
2019-06-26T07:29:21.354Z,40.30
2019-06-26T07:31:50.111Z,47.87
2019-06-26T07:34:18.669Z,42.37
2019-06-26T07:36:47.439Z,41.23
2019-06-26T07:39:16.201Z,44.57
2019-06-26T07:41:44.793Z,42.77
2019-06-26T07:44:13.642Z,41.10
2019-06-26T07:46:42.377Z,44.33
2019-06-26T07:49:11.000Z,43.60
2019-06-26T07:51:39.769Z,44.83
2019-06-26T07:54:08.461Z,41.80
2019-06-26T07:56:37.215Z,41.10
2019-06-26T07:59:06.039Z,42.43
2019-06-26T08:01:34.765Z,38.67
2019-06-26T08:04:03.284Z,45.43
2019-06-26T08:06:32.181Z,38.80
2019-06-26T08:09:00.833Z,39.80
2019-06-26T08:11:31.073Z,41.27
2019-06-26T08:13:59.917Z,35.97
2019-06-26T08:16:34.312Z,39.07
2019-06-26T08:19:01.091Z,36.53
2019-06-26T08:21:29.726Z,33.77
2019-06-26T08:24:00.390Z,32.90
2019-06-26T08:26:29.196Z,30.13
2019-06-26T08:28:58.036Z,33.73
2019-06-26T08:31:26.773Z,31.03
2019-06-26T08:33:55.546Z,30.90
2019-06-26T08:36:27.250Z,28.00
2019-06-26T08:38:56.073Z,30.37
2019-06-26T08:41:24.901Z,33.47
2019-06-26T08:43:53.551Z,31.97
2019-06-26T08:46:22.393Z,33.03
2019-06-26T08:48:53.874Z,29.80
2019-06-26T08:51:24.274Z,33.23
2019-06-26T08:53:52.854Z,30.17
2019-06-26T08:56:21.618Z,34.53
2019-06-26T08:58:50.298Z,29.97
2019-06-26T09:01:18.923Z,25.73
2019-06-26T09:03:49.381Z,31.67
2019-06-26T09:06:18.199Z,32.33
2019-06-26T09:08:46.932Z,27.70
2019-06-26T09:11:16.198Z,24.97
2019-06-26T09:13:46.642Z,32.95
2019-06-26T09:16:15.326Z,33.40
2019-06-26T09:18:43.987Z,30.25
2019-06-26T09:21:13.661Z,29.10
2019-06-26T09:23:42.327Z,33.80
2019-06-26T09:26:10.977Z,31.67
2019-06-26T09:28:40.110Z,29.23
2019-06-26T09:31:08.740Z,29.12
2019-06-26T09:33:37.401Z,26.83
2019-06-26T09:36:06.955Z,26.00
2019-06-26T09:38:35.673Z,25.32
2019-06-26T09:41:04.269Z,28.37
2019-06-26T09:43:32.902Z,24.30
2019-06-26T09:46:01.783Z,26.60
2019-06-26T09:48:30.451Z,33.58
2019-06-26T09:50:59.080Z,31.23
2019-06-26T09:53:27.671Z,34.00
2019-06-26T09:55:56.185Z,33.63
2019-06-26T09:58:24.766Z,31.75
2019-06-26T10:00:53.434Z,33.10
2019-06-26T10:03:22.190Z,28.77
2019-06-26T10:05:50.899Z,27.90
2019-06-26T10:08:19.453Z,28.07
2019-06-26T10:10:48.015Z,30.67
2019-06-26T10:13:16.664Z,31.33
2019-06-26T10:15:45.235Z,31.10
2019-06-26T10:18:13.779Z,29.93
2019-06-26T10:20:42.683Z,28.97
2019-06-26T10:23:11.356Z,30.50
2019-06-26T10:25:39.899Z,28.65
2019-06-26T10:28:08.401Z,28.38
2019-06-26T10:30:37.006Z,31.85
2019-06-26T10:33:05.487Z,29.20
2019-06-26T10:35:34.030Z,28.65
2019-06-26T10:38:02.687Z,27.17
2019-06-26T10:40:31.317Z,25.90
2019-06-26T10:43:00.219Z,32.67
2019-06-26T10:45:29.255Z,31.73
2019-06-26T10:47:57.853Z,35.90
2019-06-26T10:50:26.869Z,32.53
2019-06-26T10:52:55.407Z,33.47
2019-06-26T10:55:24.093Z,29.50
2019-06-26T10:57:52.833Z,30.43
2019-06-26T11:00:21.466Z,32.83
2019-06-26T11:02:50.252Z,29.48
2019-06-26T11:05:19.049Z,27.33
2019-06-26T11:07:47.528Z,32.73
2019-06-26T11:10:16.104Z,31.35
2019-06-26T11:12:48.748Z,30.95
2019-06-26T11:15:14.909Z,31.25
2019-06-26T11:17:43.653Z,27.67
2019-06-26T11:20:12.252Z,23.22
2019-06-26T11:22:40.865Z,21.80
2019-06-26T11:25:09.590Z,27.37
2019-06-26T11:27:38.213Z,23.80
2019-06-26T11:30:10.805Z,25.02
2019-06-26T11:32:39.581Z,26.93
2019-06-26T11:35:12.523Z,31.93
2019-06-26T11:37:38.441Z,29.35
2019-06-26T11:40:07.397Z,29.52
2019-06-26T11:42:36.038Z,29.92
2019-06-26T11:45:06.490Z,27.13
2019-06-26T11:47:35.156Z,24.32
2019-06-26T11:50:08.363Z,25.68
2019-06-26T11:52:38.757Z,26.05
2019-06-26T11:55:11.480Z,23.13
2019-06-26T11:57:40.251Z,27.93
2019-06-26T12:00:11.662Z,27.85
2019-06-26T12:02:40.653Z,29.35
2019-06-26T12:05:09.622Z,31.95
2019-06-26T12:07:38.324Z,26.77
2019-06-26T12:10:07.350Z,28.57
2019-06-26T12:12:36.184Z,34.18
2019-06-26T12:15:05.864Z,31.80
2019-06-26T12:17:34.450Z,29.48
2019-06-26T12:20:17.283Z,33.60
2019-06-26T12:22:33.365Z,33.18
2019-06-26T12:25:01.959Z,29.07
2019-06-26T12:27:30.759Z,30.75
2019-06-26T12:29:59.308Z,29.65
2019-06-26T12:32:27.961Z,30.10
2019-06-26T12:34:56.651Z,36.20
2019-06-26T12:37:36.900Z,33.28
2019-06-26T12:39:55.821Z,26.57
2019-06-26T12:42:24.446Z,26.80
2019-06-26T12:44:53.139Z,31.05
2019-06-26T12:47:21.690Z,29.42
2019-06-26T12:49:50.464Z,27.13
2019-06-26T12:52:19.122Z,25.30
2019-06-26T12:54:47.656Z,25.25
2019-06-26T12:57:16.353Z,29.75
2019-06-26T12:59:56.715Z,27.05
2019-06-26T13:02:15.420Z,27.05
2019-06-26T13:04:45.077Z,30.65
2019-06-26T13:07:13.909Z,34.48
2019-06-26T13:09:42.616Z,35.30
2019-06-26T13:12:11.255Z,35.50
2019-06-26T13:14:39.994Z,32.80
2019-06-26T13:17:08.441Z,31.97
2019-06-26T13:19:37.061Z,37.70
2019-06-26T13:22:05.656Z,36.85
2019-06-26T13:24:34.216Z,38.85
2019-06-26T13:27:02.723Z,37.23
2019-06-26T13:29:31.201Z,36.45
2019-06-26T13:31:59.900Z,33.50
2019-06-26T13:34:28.366Z,38.42
2019-06-26T13:36:56.982Z,40.60
2019-06-26T13:39:25.624Z,32.40
2019-06-26T13:41:54.156Z,38.45
2019-06-26T13:44:22.638Z,35.43
2019-06-26T13:46:51.245Z,35.92
2019-06-26T13:49:19.760Z,35.98
2019-06-26T13:51:48.334Z,38.83
2019-06-26T13:54:16.949Z,34.88
2019-06-26T13:56:45.544Z,36.17
2019-06-26T13:59:14.105Z,32.17
2019-06-26T14:01:42.698Z,31.60
2019-06-26T14:04:11.402Z,39.20
2019-06-26T14:06:40.119Z,33.13
2019-06-26T14:09:08.648Z,31.65
2019-06-26T14:11:37.270Z,30.23
2019-06-26T14:14:05.870Z,29.20
2019-06-26T14:16:35.442Z,27.75
2019-06-26T14:19:04.003Z,28.77
2019-06-26T14:21:35.772Z,27.60
2019-06-26T14:24:04.510Z,25.15
2019-06-26T14:26:33.966Z,28.62
2019-06-26T14:29:02.802Z,28.07
2019-06-26T14:31:31.439Z,27.65
2019-06-26T14:33:59.930Z,26.15
2019-06-26T14:36:28.590Z,26.15
2019-06-26T14:38:57.254Z,25.35
2019-06-26T14:41:25.895Z,28.47
2019-06-26T14:43:54.699Z,25.80
2019-06-26T14:46:23.588Z,27.95
2019-06-26T14:48:52.172Z,25.40
2019-06-26T14:51:21.057Z,24.40
2019-06-26T14:53:49.993Z,26.57
2019-06-26T14:56:21.716Z,26.68
2019-06-26T14:58:51.468Z,28.98
2019-06-26T15:01:20.134Z,27.10
2019-06-26T15:03:48.815Z,23.25
2019-06-26T15:06:17.602Z,24.57
2019-06-26T15:08:46.134Z,25.12
2019-06-26T15:11:15.753Z,22.20
2019-06-26T15:13:44.599Z,24.70
2019-06-26T15:16:13.270Z,23.45
2019-06-26T15:18:42.164Z,21.95
2019-06-26T15:21:10.709Z,22.93
2019-06-26T15:23:41.075Z,22.42
2019-06-26T15:26:09.778Z,21.70
2019-06-26T15:28:38.532Z,23.02
2019-06-26T15:31:07.135Z,22.75
2019-06-26T15:33:36.671Z,20.32
2019-06-26T15:36:05.566Z,20.60
2019-06-26T15:38:34.152Z,19.92
2019-06-26T15:41:02.693Z,19.15
2019-06-26T15:43:31.504Z,19.32
2019-06-26T15:46:00.198Z,19.57
2019-06-26T15:48:28.923Z,18.60
2019-06-26T15:50:57.529Z,21.48
2019-06-26T15:53:26.101Z,19.60
2019-06-26T15:55:54.664Z,20.20
2019-06-26T15:58:23.259Z,22.62
2019-06-26T16:00:52.033Z,22.00
2019-06-26T16:03:20.591Z,21.12
2019-06-26T16:05:49.327Z,23.20
2019-06-26T16:08:18.300Z,23.50
2019-06-26T16:10:47.072Z,17.92
2019-06-26T16:13:15.763Z,21.35
2019-06-26T16:15:44.445Z,20.32
2019-06-26T16:18:24.918Z,19.52
2019-06-26T16:20:53.897Z,22.48
2019-06-26T16:23:22.628Z,20.00
2019-06-26T16:25:51.173Z,21.20
2019-06-26T16:28:19.899Z,21.20
2019-06-26T16:30:48.592Z,19.10
2019-06-26T16:33:17.341Z,19.45
2019-06-26T16:35:46.031Z,21.30
2019-06-26T16:38:14.623Z,21.40
2019-06-26T16:40:43.226Z,21.02
2019-06-26T16:43:11.945Z,22.48
2019-06-26T16:45:40.624Z,26.75
2019-06-26T16:48:09.159Z,22.17
2019-06-26T16:50:37.746Z,22.62
2019-06-26T16:53:06.384Z,21.02
2019-06-26T16:55:34.932Z,22.65
2019-06-26T16:58:03.713Z,23.27
2019-06-26T17:00:32.339Z,27.40
2019-06-26T17:03:00.898Z,25.57
2019-06-26T17:05:29.525Z,24.55
2019-06-26T17:07:58.304Z,27.00
2019-06-26T17:10:26.911Z,26.87
2019-06-26T17:12:55.533Z,24.57
2019-06-26T17:15:24.105Z,24.57
2019-06-26T17:17:52.793Z,28.42
2019-06-26T17:20:21.694Z,25.97
2019-06-26T17:23:04.479Z,24.63
2019-06-26T17:25:21.118Z,23.70
2019-06-26T17:27:50.207Z,28.35
2019-06-26T17:30:21.263Z,26.77
2019-06-26T17:32:50.244Z,25.95
2019-06-26T17:35:19.185Z,26.27
2019-06-26T17:37:47.874Z,24.45
2019-06-26T17:40:16.468Z,23.30
2019-06-26T17:42:45.057Z,24.70
2019-06-26T17:45:15.323Z,20.02
2019-06-26T17:47:44.051Z,16.12
2019-06-26T17:50:14.295Z,20.25
2019-06-26T17:52:43.240Z,19.00
2019-06-26T17:55:11.816Z,17.15
2019-06-26T17:57:40.708Z,16.00
2019-06-26T18:00:10.036Z,11.83
2019-06-26T18:02:38.833Z,17.87
2019-06-26T18:05:07.763Z,13.25
2019-06-26T18:07:38.443Z,10.20
2019-06-26T18:10:07.108Z,11.60
2019-06-26T18:12:36.829Z,12.05
2019-06-26T18:15:06.727Z,11.33
2019-06-26T18:17:35.362Z,9.93
2019-06-26T18:20:05.839Z,9.70
2019-06-26T18:22:34.587Z,10.05
2019-06-26T18:25:03.342Z,10.78
2019-06-26T18:27:32.146Z,7.85
2019-06-26T18:30:00.858Z,8.85
2019-06-26T18:32:29.772Z,7.70
2019-06-26T18:34:58.449Z,8.05
2019-06-26T18:37:28.392Z,7.92
2019-06-26T18:39:57.110Z,6.87
2019-06-26T18:42:25.795Z,6.10
2019-06-26T18:44:54.535Z,6.50
2019-06-26T18:47:23.047Z,7.92
2019-06-26T18:49:51.635Z,6.12
2019-06-26T18:52:21.366Z,6.45
2019-06-26T18:54:50.021Z,7.00
2019-06-26T18:57:18.762Z,7.08
2019-06-26T18:59:47.390Z,9.33
2019-06-26T19:02:16.202Z,9.50
2019-06-26T19:04:45.131Z,10.80
2019-06-26T19:07:13.771Z,9.40
2019-06-26T19:09:42.481Z,7.83
2019-06-26T19:12:11.371Z,7.40
2019-06-26T19:14:40.052Z,8.60
2019-06-26T19:17:08.804Z,5.87
2019-06-26T19:19:37.363Z,5.90
2019-06-26T19:22:06.094Z,6.12
2019-06-26T19:24:34.698Z,6.37
2019-06-26T19:27:07.266Z,6.17
2019-06-26T19:29:33.391Z,6.12
2019-06-26T19:32:01.930Z,7.47
2019-06-26T19:34:30.589Z,5.83
2019-06-26T19:36:59.331Z,4.80
2019-06-26T19:39:48.500Z,5.40
2019-06-26T19:42:45.778Z,5.33
2019-06-26T19:45:14.699Z,5.23
2019-06-26T19:47:43.311Z,5.23
2019-06-26T19:50:11.987Z,6.10
2019-06-26T19:52:40.660Z,4.27
2019-06-26T19:55:09.351Z,4.50
2019-06-26T19:57:41.029Z,4.37
2019-06-26T20:00:10.164Z,3.70
2019-06-26T20:02:38.797Z,4.10
2019-06-26T20:05:07.770Z,4.10
2019-06-26T20:07:36.518Z,4.83
2019-06-26T20:10:08.171Z,4.13
2019-06-26T20:12:36.864Z,4.20
2019-06-26T20:15:08.568Z,4.67
2019-06-26T20:17:37.343Z,4.03
2019-06-26T20:20:06.888Z,3.80
2019-06-26T20:22:35.900Z,3.35
2019-06-26T20:25:08.832Z,4.13
2019-06-26T20:27:38.799Z,3.67
2019-06-26T20:30:10.083Z,3.20
2019-06-26T20:32:39.027Z,3.97
2019-06-26T20:35:08.130Z,3.80
2019-06-26T20:37:38.438Z,3.73
2019-06-26T20:40:07.671Z,3.30
2019-06-26T20:42:37.970Z,3.83
2019-06-26T20:45:07.146Z,3.33
2019-06-26T20:47:35.825Z,3.95
2019-06-26T20:50:06.490Z,3.23
2019-06-26T20:52:38.165Z,3.07
2019-06-26T20:55:06.828Z,3.27
2019-06-26T20:57:35.405Z,3.70
2019-06-26T21:00:05.228Z,3.43
2019-06-26T21:02:33.904Z,3.13
2019-06-26T21:05:02.896Z,3.57
2019-06-26T21:07:31.458Z,3.12
2019-06-26T21:09:59.969Z,3.60
2019-06-26T21:12:28.751Z,3.10
2019-06-26T21:14:57.540Z,2.90
2019-06-26T21:17:26.201Z,3.13
2019-06-26T21:19:54.871Z,3.90
2019-06-26T21:22:23.361Z,3.53
2019-06-26T21:24:51.902Z,3.80
2019-06-26T21:27:20.587Z,3.10
2019-06-26T21:29:49.288Z,3.53
2019-06-26T21:32:18.013Z,3.00
2019-06-26T21:34:46.732Z,2.90
2019-06-26T21:37:15.295Z,3.10
2019-06-26T21:39:44.090Z,3.57
2019-06-26T21:42:13.124Z,3.73
2019-06-26T21:44:41.755Z,3.57
2019-06-26T21:47:10.337Z,3.57
2019-06-26T21:49:39.025Z,3.40
2019-06-26T21:52:08.300Z,3.47
2019-06-26T21:54:38.037Z,3.47
2019-06-26T21:57:09.269Z,3.73
2019-06-26T21:59:36.850Z,3.20
2019-06-26T22:02:05.373Z,3.17
2019-06-26T22:04:34.099Z,3.27
2019-06-26T22:07:02.650Z,3.47
2019-06-26T22:09:31.261Z,4.10
2019-06-26T22:12:00.837Z,3.50
2019-06-26T22:14:32.373Z,3.20
2019-06-26T22:17:01.486Z,3.40
2019-06-26T22:19:30.302Z,3.90
2019-06-26T22:21:58.897Z,3.47
2019-06-26T22:24:27.582Z,3.63
2019-06-26T22:26:56.786Z,3.57
2019-06-26T22:29:25.354Z,3.50
2019-06-26T22:31:54.012Z,3.43
2019-06-26T22:34:22.623Z,3.90
2019-06-26T22:36:52.236Z,3.80
2019-06-26T22:39:21.038Z,3.53
2019-06-26T22:41:49.497Z,3.63
2019-06-26T22:44:17.992Z,3.70
2019-06-26T22:46:46.681Z,3.40
2019-06-26T22:49:15.224Z,3.50
2019-06-26T22:51:43.822Z,3.40
2019-06-26T22:54:12.283Z,3.80
2019-06-26T22:56:41.074Z,4.00
2019-06-26T22:59:09.608Z,3.80
2019-06-26T23:01:38.142Z,3.30
2019-06-26T23:04:06.710Z,3.70
2019-06-26T23:06:37.448Z,3.60
2019-06-26T23:09:24.866Z,4.00
2019-06-26T23:11:53.455Z,3.33
2019-06-26T23:14:24.940Z,4.57
2019-06-26T23:16:53.488Z,4.37
2019-06-26T23:19:21.943Z,3.87
2019-06-26T23:21:52.299Z,4.37
2019-06-26T23:24:23.828Z,4.70
2019-06-26T23:26:52.644Z,3.57
2019-06-26T23:29:21.114Z,4.00
2019-06-26T23:31:49.631Z,4.00
2019-06-26T23:34:18.154Z,3.60
2019-06-26T23:36:46.699Z,4.03
2019-06-26T23:39:15.144Z,3.57
2019-06-26T23:41:43.613Z,3.80
2019-06-26T23:44:12.053Z,3.60
2019-06-26T23:46:40.500Z,3.83
2019-06-26T23:49:08.996Z,3.37
2019-06-26T23:51:37.576Z,3.80
2019-06-26T23:54:06.029Z,3.97
2019-06-26T23:56:40.475Z,4.17
2019-06-26T23:59:04.719Z,3.97
